createdAt,value
2023-05-05T00:00:25.913Z,645.00
2023-05-05T00:01:25.931Z,652.00
2023-05-05T00:02:25.992Z,655.00
2023-05-05T00:03:26.090Z,662.00
2023-05-05T00:04:26.049Z,674.00
2023-05-05T00:05:26.083Z,660.00
2023-05-05T00:06:26.123Z,661.00
2023-05-05T00:07:26.163Z,661.00
2023-05-05T00:08:26.234Z,663.00
2023-05-05T00:09:26.257Z,658.00
2023-05-05T00:10:26.288Z,657.00
2023-05-05T00:11:26.349Z,677.00
2023-05-05T00:12:26.356Z,680.00
2023-05-05T00:13:26.390Z,674.00
2023-05-05T00:14:26.463Z,700.00
2023-05-05T00:15:26.498Z,689.00
2023-05-05T00:16:26.571Z,707.00
2023-05-05T00:17:26.570Z,700.00
2023-05-05T00:18:26.586Z,717.00
2023-05-05T00:19:26.636Z,709.00
2023-05-05T00:20:26.706Z,681.00
2023-05-05T00:21:26.714Z,681.00
2023-05-05T00:22:26.788Z,672.00
2023-05-05T00:23:26.796Z,684.00
2023-05-05T00:24:26.846Z,663.00
2023-05-05T00:25:26.869Z,658.00
2023-05-05T00:26:26.924Z,658.00
2023-05-05T00:27:26.934Z,651.00
2023-05-05T00:28:27.003Z,654.00
2023-05-05T00:29:27.010Z,663.00
2023-05-05T00:30:27.079Z,663.00
2023-05-05T00:31:27.208Z,661.00
2023-05-05T00:32:27.199Z,678.00
2023-05-05T00:33:27.190Z,661.00
2023-05-05T00:34:27.267Z,653.00
2023-05-05T00:35:27.309Z,665.00
2023-05-05T00:36:27.359Z,659.00
2023-05-05T00:37:27.353Z,647.00
2023-05-05T00:38:27.414Z,651.00
2023-05-05T00:39:27.467Z,648.00
2023-05-05T00:40:27.544Z,652.00
2023-05-05T00:41:27.531Z,637.00
2023-05-05T00:42:27.605Z,636.00
2023-05-05T00:43:27.654Z,643.00
2023-05-05T00:44:27.671Z,649.00
2023-05-05T00:45:27.706Z,648.00
2023-05-05T00:46:27.906Z,642.00
2023-05-05T00:47:27.864Z,642.00
2023-05-05T00:48:27.844Z,644.00
2023-05-05T00:49:27.968Z,643.00
2023-05-05T00:50:27.962Z,643.00
2023-05-05T00:51:28.000Z,637.00
2023-05-05T00:52:28.035Z,637.00
2023-05-05T00:53:28.083Z,639.00
2023-05-05T00:54:28.157Z,641.00
2023-05-05T00:55:28.199Z,652.00
2023-05-05T00:56:28.238Z,651.00
2023-05-05T00:57:28.314Z,660.00
2023-05-05T00:58:28.350Z,656.00
2023-05-05T00:59:28.439Z,663.00
2023-05-05T01:00:28.450Z,661.00
2023-05-05T01:01:28.570Z,670.00
2023-05-05T01:02:28.649Z,686.00
2023-05-05T01:03:28.733Z,683.00
2023-05-05T01:04:28.673Z,681.00
2023-05-05T01:05:28.738Z,678.00
2023-05-05T01:06:28.779Z,665.00
2023-05-05T01:07:28.825Z,659.00
2023-05-05T01:08:28.885Z,663.00
2023-05-05T01:09:28.984Z,673.00
2023-05-05T01:10:28.983Z,693.00
2023-05-05T01:11:29.059Z,677.00
2023-05-05T01:12:29.107Z,662.00
2023-05-05T01:13:29.158Z,661.00
2023-05-05T01:14:29.194Z,660.00
2023-05-05T01:15:29.221Z,660.00
2023-05-05T01:16:29.380Z,648.00
2023-05-05T01:17:29.363Z,644.00
2023-05-05T01:18:29.392Z,649.00
2023-05-05T01:19:29.460Z,652.00
2023-05-05T01:20:29.508Z,650.00
2023-05-05T01:21:29.566Z,646.00
2023-05-05T01:22:29.593Z,644.00
2023-05-05T01:23:29.633Z,648.00
2023-05-05T01:24:29.663Z,647.00
2023-05-05T01:25:29.708Z,653.00
2023-05-05T01:26:29.758Z,646.00
2023-05-05T01:27:29.771Z,653.00
2023-05-05T01:28:29.768Z,649.00
2023-05-05T01:29:29.838Z,656.00
2023-05-05T01:30:29.854Z,651.00
2023-05-05T01:31:29.946Z,639.00
2023-05-05T01:32:30.004Z,646.00
2023-05-05T01:33:29.983Z,644.00
2023-05-05T01:34:30.079Z,645.00
2023-05-05T01:35:30.120Z,642.00
2023-05-05T01:36:30.113Z,646.00
2023-05-05T01:37:30.136Z,648.00
2023-05-05T01:38:30.146Z,648.00
2023-05-05T01:39:30.254Z,655.00
2023-05-05T01:40:30.254Z,651.00
2023-05-05T01:41:30.300Z,649.00
2023-05-05T01:42:30.340Z,649.00
2023-05-05T01:43:30.352Z,655.00
2023-05-05T01:44:30.428Z,656.00
2023-05-05T01:45:30.502Z,649.00
2023-05-05T01:46:30.493Z,643.00
2023-05-05T01:47:30.559Z,637.00
2023-05-05T01:48:30.568Z,645.00
2023-05-05T01:49:30.547Z,641.00
2023-05-05T01:50:30.596Z,643.00
2023-05-05T01:51:30.622Z,637.00
2023-05-05T01:52:30.586Z,629.00
2023-05-05T01:53:30.631Z,632.00
2023-05-05T01:54:30.620Z,633.00
2023-05-05T01:55:30.664Z,632.00
2023-05-05T01:56:30.741Z,631.00
2023-05-05T01:57:30.685Z,632.00
2023-05-05T01:58:30.676Z,633.00
2023-05-05T01:59:30.677Z,634.00
2023-05-05T02:00:30.738Z,638.00
2023-05-05T02:01:30.758Z,642.00
2023-05-05T02:02:30.787Z,646.00
2023-05-05T02:03:30.786Z,640.00
2023-05-05T02:04:30.717Z,640.00
2023-05-05T02:05:30.742Z,646.00
2023-05-05T02:06:30.767Z,650.00
2023-05-05T02:07:30.729Z,656.00
2023-05-05T02:08:30.756Z,655.00
2023-05-05T02:09:30.769Z,650.00
2023-05-05T02:10:30.758Z,652.00
2023-05-05T02:11:30.773Z,645.00
2023-05-05T02:12:30.846Z,650.00
2023-05-05T02:13:30.782Z,648.00
2023-05-05T02:14:30.812Z,636.00
2023-05-05T02:15:30.865Z,639.00
2023-05-05T02:16:30.802Z,641.00
2023-05-05T02:17:30.862Z,642.00
2023-05-05T02:18:30.822Z,643.00
2023-05-05T02:19:30.826Z,644.00
2023-05-05T02:20:30.907Z,645.00
2023-05-05T02:21:30.868Z,642.00
2023-05-05T02:22:30.860Z,643.00
2023-05-05T02:23:30.915Z,649.00
2023-05-05T02:24:31.016Z,655.00
2023-05-05T02:25:30.875Z,655.00
2023-05-05T02:26:30.884Z,657.00
2023-05-05T02:27:30.877Z,658.00
2023-05-05T02:28:30.837Z,658.00
2023-05-05T02:29:30.868Z,662.00
2023-05-05T02:30:30.838Z,660.00
2023-05-05T02:31:30.907Z,660.00
2023-05-05T02:32:30.845Z,660.00
2023-05-05T02:33:30.816Z,659.00
2023-05-05T02:34:30.824Z,665.00
2023-05-05T02:35:31.504Z,662.00
2023-05-05T02:36:30.791Z,663.00
2023-05-05T02:37:30.787Z,665.00
2023-05-05T02:38:30.804Z,665.00
2023-05-05T02:39:30.780Z,685.00
2023-05-05T02:40:30.800Z,672.00
2023-05-05T02:41:30.837Z,679.00
2023-05-05T02:42:30.814Z,688.00
2023-05-05T02:43:30.817Z,694.00
2023-05-05T02:44:30.853Z,709.00
2023-05-05T02:45:30.893Z,700.00
2023-05-05T02:46:30.917Z,698.00
2023-05-05T02:47:30.954Z,700.00
2023-05-05T02:48:30.898Z,705.00
2023-05-05T02:49:30.905Z,683.00
2023-05-05T02:50:30.945Z,677.00
2023-05-05T02:51:30.932Z,679.00
2023-05-05T02:52:30.918Z,680.00
2023-05-05T02:53:30.925Z,680.00
2023-05-05T02:54:30.965Z,667.00
2023-05-05T02:55:30.960Z,669.00
2023-05-05T02:56:30.967Z,680.00
2023-05-05T02:57:31.003Z,666.00
2023-05-05T02:58:31.035Z,664.00
2023-05-05T02:59:31.021Z,661.00
2023-05-05T03:00:31.078Z,661.00
2023-05-05T03:01:31.073Z,681.00
2023-05-05T03:02:31.189Z,666.00
2023-05-05T03:03:31.082Z,680.00
2023-05-05T03:04:31.057Z,705.00
2023-05-05T03:05:31.094Z,706.00
2023-05-05T03:06:31.144Z,700.00
2023-05-05T03:07:31.100Z,705.00
2023-05-05T03:08:31.098Z,705.00
2023-05-05T03:09:31.114Z,718.00
2023-05-05T03:10:31.157Z,714.00
2023-05-05T03:11:31.146Z,723.00
2023-05-05T03:12:31.183Z,716.00
2023-05-05T03:13:31.154Z,718.00
2023-05-05T03:14:33.297Z,711.00
2023-05-05T03:15:31.199Z,737.00
2023-05-05T03:16:31.169Z,742.00
2023-05-05T03:17:31.203Z,748.00
2023-05-05T03:18:31.215Z,743.00
2023-05-05T03:19:31.234Z,732.00
2023-05-05T03:20:31.252Z,738.00
2023-05-05T03:21:31.245Z,743.00
2023-05-05T03:22:31.275Z,733.00
2023-05-05T03:23:31.268Z,725.00
2023-05-05T03:24:31.325Z,736.00
2023-05-05T03:25:32.105Z,750.00
2023-05-05T03:26:31.317Z,763.00
2023-05-05T03:27:31.364Z,762.00
2023-05-05T03:28:31.329Z,756.00
2023-05-05T03:29:31.369Z,754.00
2023-05-05T03:30:31.371Z,761.00
2023-05-05T03:31:31.408Z,753.00
2023-05-05T03:32:31.411Z,735.00
2023-05-05T03:33:31.414Z,735.00
2023-05-05T03:34:31.417Z,733.00
2023-05-05T03:35:31.413Z,725.00
2023-05-05T03:36:31.436Z,726.00
2023-05-05T03:37:31.437Z,720.00
2023-05-05T03:38:31.416Z,721.00
2023-05-05T03:39:31.455Z,723.00
2023-05-05T03:40:43.030Z,746.00
2023-05-05T03:41:32.462Z,747.00
2023-05-05T03:42:31.477Z,749.00
2023-05-05T03:43:31.451Z,753.00
2023-05-05T03:44:31.465Z,750.00
2023-05-05T03:45:31.474Z,760.00
2023-05-05T03:46:31.438Z,739.00
2023-05-05T03:47:31.472Z,735.00
2023-05-05T03:48:31.417Z,735.00
2023-05-05T03:49:31.433Z,733.00
2023-05-05T03:50:31.413Z,735.00
2023-05-05T03:51:31.444Z,741.00
2023-05-05T03:52:31.375Z,746.00
2023-05-05T03:53:31.371Z,751.00
2023-05-05T03:54:31.373Z,747.00
2023-05-05T03:55:31.384Z,764.00
2023-05-05T03:56:31.391Z,771.00
2023-05-05T03:57:31.369Z,765.00
2023-05-05T03:58:31.344Z,779.00
2023-05-05T03:59:31.334Z,770.00
2023-05-05T04:00:31.335Z,785.00
2023-05-05T04:01:31.324Z,785.00
2023-05-05T04:02:31.411Z,791.00
2023-05-05T04:03:31.565Z,787.00
2023-05-05T04:04:31.402Z,810.00
2023-05-05T04:05:31.304Z,798.00
2023-05-05T04:06:31.285Z,781.00
2023-05-05T04:07:31.271Z,792.00
2023-05-05T04:08:31.286Z,778.00
2023-05-05T04:09:31.323Z,780.00
2023-05-05T04:10:31.354Z,769.00
2023-05-05T04:11:31.365Z,790.00
2023-05-05T04:12:31.378Z,784.00
2023-05-05T04:13:31.343Z,782.00
2023-05-05T04:14:31.330Z,797.00
2023-05-05T04:15:31.385Z,794.00
2023-05-05T04:16:31.406Z,789.00
2023-05-05T04:17:31.417Z,788.00
2023-05-05T04:18:31.419Z,790.00
2023-05-05T04:19:31.435Z,804.00
2023-05-05T04:20:31.466Z,792.00
2023-05-05T04:21:31.437Z,786.00
2023-05-05T04:22:31.450Z,801.00
2023-05-05T04:23:31.469Z,809.00
2023-05-05T04:24:31.465Z,816.00
2023-05-05T04:25:31.514Z,810.00
2023-05-05T04:26:33.067Z,820.00
2023-05-05T04:27:31.504Z,812.00
2023-05-05T04:28:31.497Z,827.00
2023-05-05T04:29:31.542Z,805.00
2023-05-05T04:30:31.519Z,799.00
2023-05-05T04:31:31.589Z,816.00
2023-05-05T04:32:31.575Z,802.00
2023-05-05T04:33:31.539Z,809.00
2023-05-05T04:34:31.554Z,808.00
2023-05-05T04:35:31.554Z,813.00
2023-05-05T04:36:31.607Z,799.00
2023-05-05T04:37:31.583Z,814.00
2023-05-05T04:38:31.659Z,802.00
2023-05-05T04:39:31.642Z,799.00
2023-05-05T04:40:31.632Z,809.00
2023-05-05T04:41:31.663Z,796.00
2023-05-05T04:42:31.668Z,796.00
2023-05-05T04:43:31.669Z,802.00
2023-05-05T04:44:31.733Z,794.00
2023-05-05T04:45:31.733Z,791.00
2023-05-05T04:46:31.783Z,790.00
2023-05-05T04:47:31.845Z,786.00
2023-05-05T04:48:31.792Z,778.00
2023-05-05T04:49:31.776Z,774.00
2023-05-05T04:50:31.776Z,774.00
2023-05-05T04:51:31.835Z,788.00
2023-05-05T04:52:31.826Z,784.00
2023-05-05T04:53:31.807Z,806.00
2023-05-05T04:54:31.841Z,795.00
2023-05-05T04:55:31.833Z,808.00
2023-05-05T04:56:31.889Z,828.00
2023-05-05T04:57:31.893Z,826.00
2023-05-05T04:58:31.876Z,827.00
2023-05-05T04:59:31.858Z,823.00
2023-05-05T05:00:31.881Z,837.00
2023-05-05T05:01:31.929Z,825.00
2023-05-05T05:02:31.962Z,823.00
2023-05-05T05:03:32.143Z,830.00
2023-05-05T05:04:31.912Z,821.00
2023-05-05T05:05:31.958Z,829.00
2023-05-05T05:06:31.969Z,826.00
2023-05-05T05:07:31.967Z,828.00
2023-05-05T05:08:31.956Z,824.00
2023-05-05T05:09:31.998Z,827.00
2023-05-05T05:10:31.986Z,822.00
2023-05-05T05:11:32.019Z,818.00
2023-05-05T05:12:32.097Z,828.00
2023-05-05T05:13:32.039Z,830.00
2023-05-05T05:14:32.017Z,829.00
2023-05-05T05:15:32.049Z,836.00
2023-05-05T05:16:32.062Z,849.00
2023-05-05T05:17:32.090Z,842.00
2023-05-05T05:18:32.060Z,849.00
2023-05-05T05:19:32.072Z,848.00
2023-05-05T05:20:32.060Z,861.00
2023-05-05T05:21:32.056Z,861.00
2023-05-05T05:22:32.074Z,841.00
2023-05-05T05:23:32.092Z,843.00
2023-05-05T05:24:32.083Z,861.00
2023-05-05T05:25:32.106Z,854.00
2023-05-05T05:26:32.144Z,870.00
2023-05-05T05:27:33.055Z,833.00
2023-05-05T05:28:32.154Z,857.00
2023-05-05T05:29:32.152Z,854.00
2023-05-05T05:30:32.154Z,855.00
2023-05-05T05:31:32.174Z,858.00
2023-05-05T05:32:33.179Z,855.00
2023-05-05T05:33:32.210Z,857.00
2023-05-05T05:34:32.194Z,864.00
2023-05-05T05:35:32.200Z,865.00
2023-05-05T05:36:32.551Z,864.00
2023-05-05T05:37:32.281Z,875.00
2023-05-05T05:38:32.295Z,931.00
2023-05-05T05:39:32.268Z,964.00
2023-05-05T05:40:32.320Z,986.00
2023-05-05T05:41:32.376Z,1065.00
2023-05-05T05:42:32.309Z,1162.00
2023-05-05T05:43:32.312Z,1111.00
2023-05-05T05:44:32.356Z,1084.00
2023-05-05T05:45:32.410Z,1106.00
2023-05-05T05:46:32.482Z,1134.00
2023-05-05T05:47:32.525Z,1144.00
2023-05-05T05:48:32.523Z,1167.00
2023-05-05T05:49:32.590Z,1188.00
2023-05-05T05:50:32.620Z,1209.00
2023-05-05T05:51:32.682Z,1288.00
2023-05-05T05:52:32.697Z,1283.00
2023-05-05T05:53:32.767Z,1306.00
2023-05-05T05:54:32.773Z,1323.00
2023-05-05T05:55:32.893Z,1350.00
2023-05-05T05:56:32.858Z,1341.00
2023-05-05T05:57:32.916Z,1339.00
2023-05-05T05:58:32.964Z,1318.00
2023-05-05T05:59:32.989Z,1316.00
2023-05-05T06:00:33.012Z,1289.00
2023-05-05T06:01:33.088Z,1308.00
2023-05-05T06:02:33.250Z,1315.00
2023-05-05T06:03:33.343Z,1332.00
2023-05-05T06:04:33.363Z,1338.00
2023-05-05T06:05:33.268Z,1330.00
2023-05-05T06:06:33.377Z,1335.00
2023-05-05T06:07:33.385Z,1331.00
2023-05-05T06:08:33.445Z,1334.00
2023-05-05T06:09:33.496Z,1330.00
2023-05-05T06:10:34.007Z,1339.00
2023-05-05T06:11:33.661Z,1325.00
2023-05-05T06:12:33.715Z,1328.00
2023-05-05T06:13:33.697Z,1339.00
2023-05-05T06:14:33.759Z,1337.00
2023-05-05T06:15:33.810Z,1331.00
2023-05-05T06:16:33.990Z,1304.00
2023-05-05T06:17:33.931Z,1283.00
2023-05-05T06:18:34.040Z,1285.00
2023-05-05T06:19:34.066Z,1288.00
2023-05-05T06:20:34.092Z,1277.00
2023-05-05T06:21:34.156Z,1282.00
2023-05-05T06:22:34.204Z,1297.00
2023-05-05T06:23:34.264Z,1286.00
2023-05-05T06:24:34.289Z,1284.00
2023-05-05T06:25:34.327Z,1291.00
2023-05-05T06:26:34.572Z,1284.00
2023-05-05T06:27:34.454Z,1260.00
2023-05-05T06:28:34.461Z,1259.00
2023-05-05T06:29:34.506Z,1264.00
2023-05-05T06:30:34.571Z,1241.00
2023-05-05T06:31:34.693Z,1220.00
2023-05-05T06:32:34.656Z,1198.00
2023-05-05T06:33:34.674Z,1212.00
2023-05-05T06:34:34.725Z,1181.00
2023-05-05T06:35:34.770Z,1149.00
2023-05-05T06:36:34.837Z,1139.00
2023-05-05T06:37:34.777Z,1130.00
2023-05-05T06:38:34.792Z,1122.00
2023-05-05T06:39:34.795Z,1127.00
2023-05-05T06:40:34.813Z,1109.00
2023-05-05T06:41:34.857Z,1089.00
2023-05-05T06:42:34.853Z,1103.00
2023-05-05T06:43:34.845Z,1079.00
2023-05-05T06:44:34.856Z,1063.00
2023-05-05T06:45:34.921Z,1065.00
2023-05-05T06:46:34.945Z,1052.00
2023-05-05T06:47:34.952Z,1031.00
2023-05-05T06:48:34.934Z,1083.00
2023-05-05T06:49:34.896Z,1098.00
2023-05-05T06:50:35.092Z,1082.00
2023-05-05T06:51:34.993Z,1094.00
2023-05-05T06:52:34.942Z,1120.00
2023-05-05T06:53:34.990Z,1136.00
2023-05-05T06:54:35.067Z,1200.00
2023-05-05T06:55:35.106Z,1186.00
2023-05-05T06:56:35.194Z,1177.00
2023-05-05T06:57:35.205Z,1195.00
2023-05-05T06:58:35.230Z,1205.00
2023-05-05T06:59:35.286Z,1206.00
2023-05-05T07:00:35.351Z,1203.00
2023-05-05T07:01:35.344Z,1220.00
2023-05-05T07:02:35.438Z,1285.00
2023-05-05T07:03:35.457Z,1231.00
2023-05-05T07:04:35.428Z,1150.00
2023-05-05T07:05:35.472Z,1086.00
2023-05-05T07:06:35.678Z,914.00
2023-05-05T07:07:35.512Z,802.00
2023-05-05T07:08:35.520Z,683.00
2023-05-05T07:09:35.548Z,658.00
2023-05-05T07:10:35.605Z,631.00
2023-05-05T07:11:35.633Z,554.00
2023-05-05T07:12:35.684Z,557.00
2023-05-05T07:13:35.725Z,536.00
2023-05-05T07:14:35.721Z,540.00
2023-05-05T07:15:35.783Z,555.00
2023-05-05T07:16:35.846Z,553.00
2023-05-05T07:17:35.818Z,539.00
2023-05-05T07:18:35.864Z,540.00
2023-05-05T07:19:35.853Z,514.00
2023-05-05T07:20:35.932Z,502.00
2023-05-05T07:21:35.931Z,491.00
2023-05-05T07:22:36.058Z,522.00
2023-05-05T07:23:35.988Z,503.00
2023-05-05T07:24:36.066Z,507.00
2023-05-05T07:25:36.046Z,519.00
2023-05-05T07:26:36.121Z,506.00
2023-05-05T07:27:36.136Z,532.00
2023-05-05T07:28:36.169Z,535.00
2023-05-05T07:29:36.243Z,482.00
2023-05-05T07:30:36.205Z,517.00
2023-05-05T07:31:36.318Z,511.00
2023-05-05T07:32:36.262Z,511.00
2023-05-05T07:33:36.280Z,525.00
2023-05-05T07:34:36.295Z,510.00
2023-05-05T07:35:36.303Z,511.00
2023-05-05T07:36:36.420Z,517.00
2023-05-05T07:37:36.289Z,511.00
2023-05-05T07:38:36.335Z,510.00
2023-05-05T07:39:36.255Z,462.00
2023-05-05T07:40:36.251Z,498.00
2023-05-05T07:41:36.258Z,400.00
2023-05-05T07:42:36.586Z,417.00
2023-05-05T07:43:36.201Z,422.00
2023-05-05T07:44:36.270Z,448.00
2023-05-05T07:45:36.243Z,465.00
2023-05-05T07:46:36.475Z,400.00
2023-05-05T07:47:36.661Z,400.00
2023-05-05T07:48:36.193Z,400.00
2023-05-05T07:49:36.241Z,400.00
2023-05-05T07:50:36.220Z,500.00
2023-05-05T07:51:36.159Z,578.00
2023-05-05T07:52:46.912Z,615.00
2023-05-05T07:53:37.177Z,616.00
2023-05-05T07:54:36.236Z,625.00
2023-05-05T07:55:36.144Z,649.00
2023-05-05T07:56:36.184Z,688.00
2023-05-05T07:57:36.153Z,766.00
2023-05-05T07:58:36.157Z,776.00
2023-05-05T07:59:36.131Z,793.00
2023-05-05T08:00:36.156Z,821.00
2023-05-05T08:01:36.127Z,841.00
2023-05-05T08:02:36.217Z,827.00
2023-05-05T08:03:36.272Z,792.00
2023-05-05T08:04:36.209Z,828.00
2023-05-05T08:05:36.065Z,839.00
2023-05-05T08:06:36.066Z,795.00
2023-05-05T08:07:36.071Z,849.00
2023-05-05T08:08:36.073Z,863.00
2023-05-05T08:09:36.058Z,857.00
2023-05-05T08:10:36.047Z,906.00
2023-05-05T08:11:36.056Z,863.00
2023-05-05T08:12:36.119Z,903.00
2023-05-05T08:13:36.067Z,936.00
2023-05-05T08:14:36.099Z,997.00
2023-05-05T08:15:36.109Z,1038.00
2023-05-05T08:16:36.339Z,1085.00
2023-05-05T08:17:36.279Z,1137.00
2023-05-05T08:18:36.340Z,1140.00
2023-05-05T08:19:36.384Z,1089.00
2023-05-05T08:20:36.435Z,1116.00
2023-05-05T08:21:36.470Z,1113.00
2023-05-05T08:22:36.565Z,1108.00
2023-05-05T08:23:36.580Z,1151.00
2023-05-05T08:24:36.641Z,1134.00
2023-05-05T08:25:36.701Z,1157.00
2023-05-05T08:26:36.827Z,1138.00
2023-05-05T08:27:36.792Z,1160.00
2023-05-05T08:28:36.820Z,1172.00
2023-05-05T08:29:36.918Z,1117.00
2023-05-05T08:30:36.914Z,1142.00
2023-05-05T08:31:36.999Z,1120.00
2023-05-05T08:32:37.055Z,1089.00
2023-05-05T08:33:37.050Z,1056.00
2023-05-05T08:34:37.135Z,1021.00
2023-05-05T08:35:37.272Z,847.00
2023-05-05T08:36:37.228Z,826.00
2023-05-05T08:37:37.641Z,927.00
2023-05-05T08:38:37.345Z,1028.00
2023-05-05T08:39:37.412Z,1009.00
2023-05-05T08:40:37.420Z,958.00
2023-05-05T08:41:37.503Z,1041.00
2023-05-05T08:42:39.150Z,977.00
2023-05-05T08:43:37.582Z,1124.00
2023-05-05T08:44:37.625Z,1148.00
2023-05-05T08:45:37.682Z,1081.00
2023-05-05T08:46:37.705Z,1267.00
2023-05-05T08:47:37.824Z,1344.00
2023-05-05T08:48:37.777Z,1333.00
2023-05-05T08:49:37.839Z,1339.00
2023-05-05T08:50:37.875Z,1397.00
2023-05-05T08:51:37.880Z,1526.00
2023-05-05T08:52:38.189Z,1662.00
2023-05-05T08:53:37.934Z,1528.00
2023-05-05T08:54:37.998Z,1417.00
2023-05-05T08:55:37.983Z,1192.00
2023-05-05T08:56:38.026Z,999.00
2023-05-05T08:57:38.055Z,1155.00
2023-05-05T08:58:38.138Z,1307.00
2023-05-05T08:59:38.061Z,1456.00
2023-05-05T09:00:38.054Z,1573.00
2023-05-05T09:01:38.194Z,1660.00
2023-05-05T09:02:38.220Z,1805.00
2023-05-05T09:03:38.265Z,1893.00
2023-05-05T09:04:38.251Z,1957.00
2023-05-05T09:05:38.287Z,2013.00
2023-05-05T09:06:38.387Z,2097.00
2023-05-05T09:07:38.604Z,2174.00
2023-05-05T09:08:38.454Z,2204.00
2023-05-05T09:09:38.491Z,2292.00
2023-05-05T09:10:38.498Z,2308.00
2023-05-05T09:11:38.561Z,2285.00
2023-05-05T09:12:38.614Z,2383.00
2023-05-05T09:13:38.594Z,2466.00
2023-05-05T09:14:38.631Z,2541.00
2023-05-05T09:15:38.620Z,2619.00
2023-05-05T09:16:38.759Z,2669.00
2023-05-05T09:17:38.747Z,2683.00
2023-05-05T09:18:38.682Z,2714.00
2023-05-05T09:19:38.696Z,2734.00
2023-05-05T09:20:38.672Z,2754.00
2023-05-05T09:21:38.724Z,2803.00
2023-05-05T09:22:39.156Z,2819.00
2023-05-05T09:23:38.716Z,2825.00
2023-05-05T09:24:38.788Z,2855.00
2023-05-05T09:25:38.822Z,2851.00
2023-05-05T09:26:38.803Z,2877.00
2023-05-05T09:27:39.136Z,2916.00
2023-05-05T09:28:38.865Z,2964.00
2023-05-05T09:29:38.830Z,3006.00
2023-05-05T09:30:38.936Z,3048.00
2023-05-05T09:31:38.962Z,3072.00
2023-05-05T09:32:39.011Z,3098.00
2023-05-05T09:33:39.020Z,3099.00
2023-05-05T09:34:39.074Z,3126.00
2023-05-05T09:35:39.668Z,3136.00
2023-05-05T09:36:39.185Z,3171.00
2023-05-05T09:37:39.649Z,3201.00
2023-05-05T09:38:39.278Z,3195.00
2023-05-05T09:39:39.345Z,3328.00
2023-05-05T09:40:39.393Z,3335.00
2023-05-05T09:41:39.532Z,3201.00
2023-05-05T09:42:39.629Z,3140.00
2023-05-05T09:43:39.524Z,3197.00
2023-05-05T09:44:39.508Z,3239.00
2023-05-05T09:45:39.544Z,3257.00
2023-05-05T09:46:39.704Z,3223.00
2023-05-05T09:47:39.654Z,3260.00
2023-05-05T09:48:39.616Z,3234.00
2023-05-05T09:49:39.736Z,3173.00
2023-05-05T09:50:39.607Z,3181.00
2023-05-05T09:51:39.608Z,3204.00
2023-05-05T09:52:39.673Z,3205.00
2023-05-05T09:53:39.680Z,3209.00
2023-05-05T09:54:39.691Z,3217.00
2023-05-05T09:55:39.703Z,3228.00
2023-05-05T09:56:39.753Z,3220.00
2023-05-05T09:57:40.171Z,3233.00
2023-05-05T09:58:39.829Z,3227.00
2023-05-05T09:59:39.802Z,3213.00
2023-05-05T10:00:39.858Z,3214.00
2023-05-05T10:01:39.875Z,3198.00
2023-05-05T10:02:39.981Z,3189.00
2023-05-05T10:03:39.913Z,3169.00
2023-05-05T10:04:39.962Z,3169.00
2023-05-05T10:05:40.003Z,3180.00
2023-05-05T10:06:40.024Z,3193.00
2023-05-05T10:07:40.136Z,3215.00
2023-05-05T10:08:40.077Z,3194.00
2023-05-05T10:09:40.081Z,3192.00
2023-05-05T10:10:40.099Z,3197.00
2023-05-05T10:11:40.140Z,3191.00
2023-05-05T10:12:40.286Z,3184.00
2023-05-05T10:13:40.212Z,3180.00
2023-05-05T10:14:40.269Z,3178.00
2023-05-05T10:15:40.282Z,3174.00
2023-05-05T10:16:40.417Z,3170.00
2023-05-05T10:17:43.960Z,3173.00
2023-05-05T10:18:41.520Z,3174.00
2023-05-05T10:19:40.393Z,3176.00
2023-05-05T10:20:40.325Z,3184.00
2023-05-05T10:21:41.956Z,3191.00
2023-05-05T10:22:40.434Z,3201.00
2023-05-05T10:23:40.383Z,3215.00
2023-05-05T10:24:40.424Z,3210.00
2023-05-05T10:25:40.418Z,3197.00
2023-05-05T10:26:40.509Z,3199.00
2023-05-05T10:27:40.530Z,3199.00
2023-05-05T10:28:40.556Z,3188.00
2023-05-05T10:29:40.639Z,3174.00
2023-05-05T10:30:40.680Z,3170.00
2023-05-05T10:31:40.696Z,3155.00
2023-05-05T10:32:53.951Z,3149.00
2023-05-05T10:33:42.363Z,3150.00
2023-05-05T10:34:40.842Z,3151.00
2023-05-05T10:35:40.694Z,3157.00
2023-05-05T10:36:40.685Z,3163.00
2023-05-05T10:37:40.680Z,3118.00
2023-05-05T10:38:40.757Z,3201.00
2023-05-05T10:39:40.711Z,3154.00
2023-05-05T10:40:40.682Z,3208.00
2023-05-05T10:41:40.652Z,3167.00
2023-05-05T10:42:40.664Z,3114.00
2023-05-05T10:43:40.685Z,3224.00
2023-05-05T10:44:40.633Z,3196.00
2023-05-05T10:45:40.803Z,3205.00
2023-05-05T10:46:40.833Z,3169.00
2023-05-05T10:47:40.690Z,3102.00
2023-05-05T10:48:40.780Z,3095.00
2023-05-05T10:49:40.689Z,2956.00
2023-05-05T10:50:40.847Z,2710.00
2023-05-05T10:51:41.304Z,2780.00
2023-05-05T10:52:40.833Z,2852.00
2023-05-05T10:53:40.842Z,2899.00
2023-05-05T10:54:40.899Z,2836.00
2023-05-05T10:55:40.989Z,2806.00
2023-05-05T10:56:40.991Z,2677.00
2023-05-05T10:57:41.068Z,2668.00
2023-05-05T10:58:58.377Z,2757.00
2023-05-05T10:59:42.074Z,2761.00
2023-05-05T11:00:41.096Z,2776.00
2023-05-05T11:01:41.064Z,2818.00
2023-05-05T11:02:41.100Z,2844.00
2023-05-05T11:03:41.146Z,2821.00
2023-05-05T11:04:41.031Z,2692.00
2023-05-05T11:05:41.041Z,3046.00
2023-05-05T11:06:41.095Z,2710.00
2023-05-05T11:07:41.021Z,2629.00
2023-05-05T11:08:41.003Z,2629.00
2023-05-05T11:09:41.041Z,2607.00
2023-05-05T11:10:41.011Z,2591.00
2023-05-05T11:11:41.019Z,2715.00
2023-05-05T11:12:40.978Z,2689.00
2023-05-05T11:13:41.018Z,2779.00
2023-05-05T11:14:41.058Z,2836.00
2023-05-05T11:15:41.014Z,2916.00
2023-05-05T11:16:41.082Z,3040.00
2023-05-05T11:17:41.146Z,3058.00
2023-05-05T11:18:41.083Z,3134.00
2023-05-05T11:19:41.075Z,3216.00
2023-05-05T11:20:41.084Z,3261.00
2023-05-05T11:21:41.082Z,3329.00
2023-05-05T11:22:41.124Z,3380.00
2023-05-05T11:23:41.133Z,3462.00
2023-05-05T11:24:41.125Z,3507.00
2023-05-05T11:25:41.327Z,3542.00
2023-05-05T11:26:41.156Z,3579.00
2023-05-05T11:27:41.162Z,3610.00
2023-05-05T11:28:41.759Z,3660.00
2023-05-05T11:29:41.235Z,3705.00
2023-05-05T11:30:41.336Z,3751.00
2023-05-05T11:31:41.586Z,3812.00
2023-05-05T11:32:41.406Z,3891.00
2023-05-05T11:33:42.050Z,3903.00
2023-05-05T11:34:41.338Z,3948.00
2023-05-05T11:35:41.354Z,3915.00
2023-05-05T11:36:41.346Z,3902.00
2023-05-05T11:37:41.415Z,3875.00
2023-05-05T11:38:41.503Z,3852.00
2023-05-05T11:39:41.463Z,3853.00
2023-05-05T11:40:41.473Z,3849.00
2023-05-05T11:41:41.485Z,3851.00
2023-05-05T11:42:41.500Z,3870.00
2023-05-05T11:43:41.560Z,3820.00
2023-05-05T11:44:41.590Z,3816.00
2023-05-05T11:45:41.646Z,3747.00
2023-05-05T11:46:41.780Z,3636.00
2023-05-05T11:47:41.750Z,3638.00
2023-05-05T11:48:41.778Z,3633.00
2023-05-05T11:49:41.801Z,3641.00
2023-05-05T11:50:41.862Z,3615.00
2023-05-05T11:51:41.881Z,3625.00
2023-05-05T11:52:41.929Z,3598.00
2023-05-05T11:53:42.005Z,3573.00
2023-05-05T11:54:42.124Z,3569.00
2023-05-05T11:55:42.131Z,3566.00
2023-05-05T11:56:42.133Z,3581.00
2023-05-05T11:57:42.194Z,3608.00
2023-05-05T11:58:42.243Z,3626.00
2023-05-05T11:59:42.329Z,3633.00
2023-05-05T12:00:42.357Z,3634.00
2023-05-05T12:01:42.442Z,3618.00
2023-05-05T12:02:42.561Z,3595.00
2023-05-05T12:03:42.573Z,3566.00
2023-05-05T12:04:43.338Z,3574.00
2023-05-05T12:05:42.735Z,3579.00
2023-05-05T12:06:42.670Z,3589.00
2023-05-05T12:07:42.708Z,3569.00
2023-05-05T12:08:42.775Z,3544.00
2023-05-05T12:09:42.829Z,3490.00
2023-05-05T12:10:42.904Z,3470.00
2023-05-05T12:11:42.908Z,3437.00
2023-05-05T12:12:42.992Z,3407.00
2023-05-05T12:13:43.007Z,3401.00
2023-05-05T12:14:43.033Z,3366.00
2023-05-05T12:15:43.102Z,3357.00
2023-05-05T12:16:43.187Z,3367.00
2023-05-05T12:17:43.236Z,3377.00
2023-05-05T12:18:43.204Z,3381.00